Time;durP1;ratioP1;P1;durP2;ratioP2;P2;SDS_P1;SDS_P2;PMS_P1;PMS_P2;Temp;Humidity;BMP_temperature;BMP_pressure;BME280_temperature;BME280_humidity;BME280_pressure;Samples;Min_cycle;Max_cycle;Signal;HPM_P1;HPM_P2
2023/03/06 00:00:18;;;;;;;20.20;16.40;;;;;;;5.19;61.58;100208.09;685480;28;1305;-84
2023/03/06 00:00:45;;;;;;;19.35;16.30;;;;;;;5.20;61.28;100199.50;685453;28;1323;-83
2023/03/06 00:01:07;;;;;;;19.25;15.70;;;;;;;5.25;61.36;100206.53;688182;28;1168;-84
2023/03/06 00:01:28;;;;;;;19.45;16.08;;;;;;;5.27;61.64;100210.97;690833;28;1421;-84
2023/03/06 00:01:49;;;;;;;18.42;15.68;;;;;;;5.19;61.27;100202.91;688193;28;1227;-84
2023/03/06 00:02:10;;;;;;;17.83;15.65;;;;;;;5.23;61.67;100203.03;690948;28;1348;-84
2023/03/06 00:02:30;;;;;;;19.13;15.98;;;;;;;5.19;61.43;100197.72;688328;28;1019;-84
2023/03/06 00:02:52;;;;;;;20.10;16.70;;;;;;;5.21;61.43;100205.53;688124;28;1295;-84
2023/03/06 00:03:12;;;;;;;20.45;16.90;;;;;;;5.20;61.56;100202.09;690865;28;1244;-84
2023/03/06 00:03:33;;;;;;;20.37;17.37;;;;;;;5.30;61.59;100213.69;688280;28;1169;-84
2023/03/06 00:03:54;;;;;;;20.95;17.40;;;;;;;5.27;61.37;100204.94;688117;28;1214;-84
2023/03/06 00:04:14;;;;;;;20.60;17.23;;;;;;;5.20;61.65;100202.09;682860;29;1460;-84
2023/03/06 00:04:35;;;;;;;20.73;16.70;;;;;;;5.23;61.39;100203.03;685586;28;982;-84
2023/03/06 00:04:56;;;;;;;20.87;16.80;;;;;;;5.18;61.61;100198.56;685579;28;1119;-84
2023/03/06 00:05:16;;;;;;;21.07;17.03;;;;;;;5.18;61.73;100195.97;685524;28;1022;-84
2023/03/06 00:05:37;;;;;;;21.90;17.45;;;;;;;5.22;61.47;100209.03;685502;28;1165;-84
2023/03/06 00:05:58;;;;;;;21.33;17.50;;;;;;;5.23;61.47;100203.03;685439;28;1194;-84
2023/03/06 00:06:18;;;;;;;21.60;17.35;;;;;;;5.23;61.41;100200.44;685408;28;1125;-84
2023/03/06 00:06:39;;;;;;;21.00;16.97;;;;;;;5.29;61.59;100213.63;685386;28;1029;-84
2023/03/06 00:07:00;;;;;;;19.70;16.25;;;;;;;5.22;61.60;100206.44;688256;28;904;-84
2023/03/06 00:07:20;;;;;;;19.38;16.17;;;;;;;5.27;61.43;100207.50;690958;28;1210;-84
2023/03/06 00:07:42;;;;;;;20.37;16.50;;;;;;;5.24;61.37;100205.69;688120;28;1359;-84
2023/03/06 00:08:02;;;;;;;23.08;18.08;;;;;;;5.29;61.86;100217.06;685388;28;1960;-84
2023/03/06 00:08:25;;;;;;;24.13;18.57;;;;;;;5.24;61.55;100203.09;688221;28;1193;-83
2023/03/06 00:08:45;;;;;;;23.02;18.05;;;;;;;5.22;61.73;100199.56;690665;28;1241;-84
2023/03/06 00:09:07;;;;;;;20.95;16.92;;;;;;;5.20;61.72;100194.31;688182;28;1174;-84
2023/03/06 00:09:27;;;;;;;20.15;16.80;;;;;;;5.23;61.51;100193.56;688265;28;1020;-84
2023/03/06 00:09:48;;;;;;;18.88;16.50;;;;;;;5.25;61.45;100204.84;688138;28;1213;-84
2023/03/06 00:10:23;;;;;;;20.30;16.88;;;;;;;5.28;61.44;100204.09;682795;29;1058;-84
2023/03/06 00:10:43;;;;;;;22.67;18.13;;;;;;;5.20;61.72;100203.78;685341;28;1162;-84
2023/03/06 00:11:04;;;;;;;22.80;18.67;;;;;;;5.25;61.87;100207.44;685466;28;1581;-84
2023/03/06 00:11:24;;;;;;;22.55;17.95;;;;;;;5.24;61.80;100204.78;682885;28;1209;-84
2023/03/06 00:11:45;;;;;;;22.13;17.60;;;;;;;5.26;61.89;100208.31;685360;28;1188;-84
2023/03/06 00:12:06;;;;;;;22.17;17.83;;;;;;;5.28;61.83;100211.88;685504;28;1162;-84
2023/03/06 00:12:27;;;;;;;22.33;17.90;;;;;;;5.24;61.77;100199.59;690834;28;1150;-84
2023/03/06 00:12:50;;;;;;;22.15;17.70;;;;;;;5.25;61.75;100201.38;690869;28;1111;-84
2023/03/06 00:13:13;;;;;;;20.90;16.50;;;;;;;5.19;61.49;100187.38;688109;28;1380;-84
2023/03/06 00:13:34;;;;;;;19.92;16.33;;;;;;;5.22;61.82;100196.97;688137;28;1375;-84
2023/03/06 00:13:54;;;;;;;21.10;17.30;;;;;;;5.23;61.83;100197.84;685375;28;1283;-84
2023/03/06 00:14:15;;;;;;;22.75;17.27;;;;;;;5.24;61.96;100192.75;688290;28;1401;-84
2023/03/06 00:14:36;;;;;;;21.15;16.35;;;;;;;5.23;61.50;100192.66;693593;28;986;-84
2023/03/06 00:14:56;;;;;;;18.85;15.30;;;;;;;5.24;61.67;100191.84;690685;28;1186;-84
2023/03/06 00:15:17;;;;;;;18.07;15.70;;;;;;;5.31;61.65;100204.22;685521;28;951;-84
2023/03/06 00:15:38;;;;;;;19.90;16.45;;;;;;;5.24;61.62;100194.44;690740;28;1404;-84
2023/03/06 00:16:02;;;;;;;20.67;16.60;;;;;;;5.26;61.79;100197.97;690898;28;784;-84
2023/03/06 00:16:23;;;;;;;20.08;16.33;;;;;;;5.27;61.59;100189.41;690970;28;791;-84
2023/03/06 00:16:44;;;;;;;20.48;16.60;;;;;;;5.32;61.48;100187.88;693292;28;1185;-84
2023/03/06 00:17:04;;;;;;;21.50;16.88;;;;;;;5.38;61.56;100197.56;685741;28;1205;-84
2023/03/06 00:17:27;;;;;;;21.77;16.50;;;;;;;5.36;61.61;100199.22;688832;28;895;-85
2023/03/06 00:17:47;;;;;;;19.92;16.60;;;;;;;5.30;61.55;100189.50;685974;28;1260;-84
2023/03/06 00:18:08;;;;;;;20.63;17.02;;;;;;;5.34;61.54;100201.78;688655;28;1069;-84
2023/03/06 00:18:29;;;;;;;22.52;17.60;;;;;;;5.25;61.44;100188.44;685932;28;1239;-84
2023/03/06 00:18:51;;;;;;;24.13;17.90;;;;;;;5.28;61.70;100199.78;685863;28;1333;-84
2023/03/06 00:19:11;;;;;;;23.75;18.10;;;;;;;5.25;61.65;100191.03;688710;28;1021;-84
2023/03/06 00:19:32;;;;;;;22.87;18.43;;;;;;;5.26;61.50;100187.59;691298;28;1163;-84
2023/03/06 00:19:53;;;;;;;22.60;18.85;;;;;;;5.26;62.09;100197.97;694134;28;970;-84
2023/03/06 00:20:14;;;;;;;22.30;18.57;;;;;;;5.25;61.69;100185.84;694109;28;1021;-84
2023/03/06 00:20:37;;;;;;;21.73;18.23;;;;;;;5.25;61.78;100201.38;688715;28;1377;-84
2023/03/06 00:20:58;;;;;;;22.10;18.20;;;;;;;5.24;62.04;100194.44;685829;28;1246;-84
2023/03/06 00:21:19;;;;;;;22.40;18.30;;;;;;;5.23;61.86;100188.41;691403;28;1090;-84
2023/03/06 00:21:40;;;;;;;21.80;18.30;;;;;;;5.25;61.95;100185.84;685967;28;1107;-84
2023/03/06 00:22:02;;;;;;;21.73;18.63;;;;;;;5.27;61.80;100197.16;691355;28;1095;-85
2023/03/06 00:22:22;;;;;;;22.13;18.42;;;;;;;5.34;61.97;100201.78;691423;28;843;-84
2023/03/06 00:22:44;;;;;;;22.50;18.40;;;;;;;5.31;61.71;100194.75;688631;28;1197;-84
2023/03/06 00:23:05;;;;;;;22.60;17.58;;;;;;;5.31;61.79;100192.16;688618;28;1076;-84
2023/03/06 00:23:26;;;;;;;20.77;16.77;;;;;;;5.25;61.57;100185.84;686188;28;853;-84
2023/03/06 00:23:47;;;;;;;21.33;16.73;;;;;;;5.23;61.85;100183.22;683210;28;1364;-84
2023/03/06 00:24:07;;;;;;;21.07;16.60;;;;;;;5.33;61.79;100197.38;688326;28;1349;-84
2023/03/06 00:24:28;;;;;;;21.77;17.20;;;;;;;5.31;61.54;100191.28;691130;28;1114;-84
2023/03/06 00:24:52;;;;;;;21.60;17.65;;;;;;;5.32;61.80;100196.53;691307;28;1190;-84
2023/03/06 00:25:17;;;;;;;21.58;17.52;;;;;;;5.37;62.26;100199.28;691389;28;1003;-84
2023/03/06 00:25:42;;;;;;;20.98;17.33;;;;;;;5.34;61.76;100196.59;685912;28;1005;-84
2023/03/06 00:26:07;;;;;;;20.30;16.55;;;;;;;5.32;61.85;100193.03;691250;28;1402;-84
2023/03/06 00:26:27;;;;;;;21.17;16.42;;;;;;;5.35;61.97;100203.53;688540;28;1339;-84
2023/03/06 00:26:48;;;;;;;23.40;16.58;;;;;;;5.29;61.88;100177.41;693956;28;1022;-84
2023/03/06 00:27:09;;;;;;;21.80;16.58;;;;;;;5.30;61.90;100185.25;691319;28;1589;-84
2023/03/06 00:27:31;;;;;;;20.38;16.45;;;;;;;5.29;62.01;100180.00;694049;28;1178;-84
2023/03/06 00:27:52;;;;;;;20.73;16.75;;;;;;;5.38;61.97;100194.97;694014;28;1903;-84
2023/03/06 00:28:14;;;;;;;20.80;16.55;;;;;;;5.31;62.10;100183.50;691592;28;1206;-84
2023/03/06 00:28:38;;;;;;;22.20;16.60;;;;;;;5.28;61.76;100194.63;685962;28;1279;-84
2023/03/06 00:28:58;;;;;;;20.85;16.02;;;;;;;5.33;62.06;100194.78;685090;28;792;-84
2023/03/06 00:29:19;;;;;;;21.70;16.57;;;;;;;5.31;61.89;100186.09;685943;28;1106;-84
2023/03/06 00:29:39;;;;;;;21.83;17.58;;;;;;;5.24;61.63;100173.75;693860;28;1178;-84
2023/03/06 00:30:00;;;;;;;23.93;18.50;;;;;;;5.34;61.56;100188.84;691360;28;767;-84
2023/03/06 00:30:23;;;;;;;24.17;18.25;;;;;;;5.38;61.98;100195.88;691383;28;1162;-84
2023/03/06 00:30:46;;;;;;;24.77;18.20;;;;;;;5.37;61.94;100196.69;688374;28;1261;-84
2023/03/06 00:31:06;;;;;;;23.30;18.15;;;;;;;5.27;62.11;100179.91;691474;28;1136;-84
2023/03/06 00:31:28;;;;;;;25.02;18.90;;;;;;;5.32;61.66;100188.75;691230;28;1060;-84
2023/03/06 00:31:49;;;;;;;26.27;19.52;;;;;;;5.35;61.70;100193.19;691349;28;1032;-84
2023/03/06 00:32:10;;;;;;;26.03;19.10;;;;;;;5.28;62.04;100180.81;688647;28;1124;-84
2023/03/06 00:32:30;;;;;;;25.23;18.93;;;;;;;5.32;62.09;100186.19;683279;29;1262;-84
2023/03/06 00:32:53;;;;;;;24.92;18.35;;;;;;;5.32;61.92;100183.59;685932;28;1111;-84
2023/03/06 00:33:13;;;;;;;24.40;18.63;;;;;;;5.34;62.11;100181.06;688579;28;1342;-84
2023/03/06 00:33:34;;;;;;;23.50;18.30;;;;;;;5.33;61.89;100181.84;688721;28;1228;-84
2023/03/06 00:33:55;;;;;;;21.48;17.85;;;;;;;5.35;61.59;100182.84;685892;28;1316;-84
2023/03/06 00:34:15;;;;;;;22.17;18.08;;;;;;;5.31;61.79;100181.81;691381;28;1228;-84
2023/03/06 00:34:36;;;;;;;22.30;17.90;;;;;;;5.35;61.94;100180.25;685872;28;1444;-84
2023/03/06 00:34:56;;;;;;;22.70;18.13;;;;;;;5.37;62.05;100188.94;685908;28;1207;-84
2023/03/06 00:35:17;;;;;;;22.25;17.85;;;;;;;5.34;61.90;100184.53;688691;28;1287;-84
2023/03/06 00:35:38;;;;;;;22.27;18.27;;;;;;;5.29;61.84;100180.00;683281;28;1213;-84
2023/03/06 00:35:59;;;;;;;23.25;18.95;;;;;;;5.34;62.02;100184.53;688655;28;1386;-84
2023/03/06 00:36:20;;;;;;;23.00;18.55;;;;;;;5.30;61.63;100168.81;688623;28;1393;-85
2023/03/06 00:36:40;;;;;;;22.17;18.40;;;;;;;5.30;62.15;100174.88;683016;29;1084;-84
2023/03/06 00:37:03;;;;;;;21.88;17.90;;;;;;;5.36;62.00;100194.94;691276;28;1166;-84
2023/03/06 00:37:24;;;;;;;21.13;17.75;;;;;;;5.36;61.81;100179.41;694138;28;795;-85
2023/03/06 00:37:45;;;;;;;18.85;16.63;;;;;;;5.37;61.80;100186.34;691173;28;1273;-84
2023/03/06 00:38:06;;;;;;;19.83;17.27;;;;;;;5.31;61.96;100170.56;688603;28;1253;-84
2023/03/06 00:38:30;;;;;;;20.67;17.52;;;;;;;5.34;61.96;100181.06;694158;28;1343;-84
2023/03/06 00:38:50;;;;;;;21.70;17.70;;;;;;;5.31;62.19;100171.47;693999;28;1062;-84
2023/03/06 00:39:11;;;;;;;20.90;17.25;;;;;;;5.31;62.14;100170.56;691297;28;1213;-84
2023/03/06 00:39:32;;;;;;;21.60;17.10;;;;;;;5.31;61.94;100171.47;686002;28;1169;-84
2023/03/06 00:39:52;;;;;;;23.05;17.95;;;;;;;5.39;61.92;100179.53;685913;28;1199;-84
2023/03/06 00:40:17;;;;;;;24.92;18.85;;;;;;;5.34;62.04;100171.59;688518;28;1098;-84
2023/03/06 00:40:38;;;;;;;26.52;19.63;;;;;;;5.44;61.79;100185.78;691289;28;1171;-84
2023/03/06 00:40:59;;;;;;;26.75;19.10;;;;;;;5.40;61.92;100176.13;691284;28;1155;-84
2023/03/06 00:41:20;;;;;;;25.30;19.07;;;;;;;5.38;61.94;100172.59;685900;28;1211;-84
2023/03/06 00:41:40;;;;;;;24.05;18.63;;;;;;;5.34;61.89;100165.53;683153;28;1194;-84
2023/03/06 00:42:01;;;;;;;24.23;18.38;;;;;;;5.40;61.89;100170.94;691260;28;1151;-85
2023/03/06 00:42:21;;;;;;;26.00;19.03;;;;;;;5.46;61.97;100178.09;688609;28;1254;-85
2023/03/06 00:42:42;;;;;;;27.73;20.00;;;;;;;5.38;62.28;100164.81;685803;28;1088;-84
2023/03/06 00:43:03;;;;;;;26.75;19.98;;;;;;;5.45;61.69;100171.13;683250;29;1255;-84
2023/03/06 00:43:23;;;;;;;26.73;19.70;;;;;;;5.50;62.00;100182.53;683387;28;1099;-84
2023/03/06 00:43:44;;;;;;;25.80;18.70;;;;;;;5.47;62.01;100165.19;683233;29;1093;-84
2023/03/06 00:44:04;;;;;;;26.05;18.52;;;;;;;5.43;61.64;100165.91;688506;28;1074;-84
2023/03/06 00:44:25;;;;;;;25.17;18.63;;;;;;;5.45;61.69;100166.84;694043;28;1368;-84
2023/03/06 00:44:46;;;;;;;24.50;18.43;;;;;;;5.48;61.65;100179.03;685741;28;1150;-84
2023/03/06 00:45:07;;;;;;;24.13;18.60;;;;;;;5.42;61.57;100158.97;688530;28;1273;-84
2023/03/06 00:45:28;;;;;;;23.98;18.50;;;;;;;5.46;61.90;100159.97;688637;28;1052;-84
2023/03/06 00:45:49;;;;;;;23.23;18.60;;;;;;;5.46;61.86;100160.84;688623;28;1095;-84
2023/03/06 00:46:11;;;;;;;22.48;18.40;;;;;;;5.41;61.79;100152.00;685895;28;1269;-84
2023/03/06 00:46:33;;;;;;;22.13;18.55;;;;;;;5.51;61.96;100173.09;683320;28;1039;-84
2023/03/06 00:46:53;;;;;;;21.30;18.10;;;;;;;5.55;61.70;100172.38;688275;28;1266;-85
2023/03/06 00:47:17;;;;;;;21.77;18.10;;;;;;;5.52;61.60;100162.75;685916;28;1381;-85
2023/03/06 00:47:38;;;;;;;22.73;18.02;;;;;;;5.56;61.57;100172.44;683079;28;1333;-84
2023/03/06 00:47:58;;;;;;;23.98;18.42;;;;;;;5.49;61.90;100157.47;685843;28;1968;-84
2023/03/06 00:48:19;;;;;;;24.25;18.30;;;;;;;5.59;61.79;100176.84;688653;28;1187;-84
2023/03/06 00:48:40;;;;;;;23.60;18.23;;;;;;;5.56;61.71;100171.53;688592;28;1169;-83
2023/03/06 00:49:00;;;;;;;23.23;18.45;;;;;;;5.59;62.10;100171.66;691279;28;815;-84
2023/03/06 00:49:21;;;;;;;21.98;17.88;;;;;;;5.56;61.65;100171.53;691381;28;1021;-84
2023/03/06 00:49:43;;;;;;;22.03;18.50;;;;;;;5.53;61.66;100161.06;685740;28;1165;-84
2023/03/06 00:50:04;;;;;;;21.45;17.92;;;;;;;5.53;61.78;100161.06;688556;28;1068;-84
2023/03/06 00:50:25;;;;;;;23.90;18.23;;;;;;;5.53;61.90;100161.06;686062;28;827;-84
2023/03/06 00:50:46;;;;;;;23.80;17.52;;;;;;;5.50;61.92;100155.75;691092;28;1272;-84
2023/03/06 00:51:28;;;;;;;24.50;18.63;;;;;;;5.60;61.64;100174.28;691361;28;1121;-84
2023/03/06 00:51:49;;;;;;;22.25;18.40;;;;;;;5.59;61.79;100161.31;691140;28;1205;-84
2023/03/06 00:52:11;;;;;;;21.90;17.90;;;;;;;5.56;61.65;100156.00;685997;28;1060;-84
2023/03/06 00:52:32;;;;;;;21.42;17.90;;;;;;;5.63;61.55;100170.94;690591;28;1030;-84
2023/03/06 00:52:53;;;;;;;22.85;17.90;;;;;;;5.58;61.79;100156.97;688592;28;1163;-84
2023/03/06 00:53:13;;;;;;;21.77;17.73;;;;;;;5.62;61.83;100166.59;688467;28;1396;-85
2023/03/06 00:53:34;;;;;;;22.88;18.38;;;;;;;5.56;61.69;100156.00;693908;28;1356;-84
2023/03/06 00:53:55;;;;;;;21.63;18.60;;;;;;;5.62;61.74;100164.00;688447;28;1094;-84
2023/03/06 00:54:16;;;;;;;21.88;18.48;;;;;;;5.63;61.55;100165.78;683306;29;1170;-84
2023/03/06 00:54:36;;;;;;;22.90;18.43;;;;;;;5.59;61.72;100162.19;688593;28;1172;-84
2023/03/06 00:54:57;;;;;;;25.67;18.60;;;;;;;5.63;61.64;100163.19;693993;28;1205;-84
2023/03/06 00:55:18;;;;;;;26.30;19.40;;;;;;;5.66;61.70;100165.91;688592;28;1067;-84
2023/03/06 00:55:38;;;;;;;24.27;18.90;;;;;;;5.58;61.72;100154.38;688478;28;1100;-84
2023/03/06 00:55:59;;;;;;;22.17;18.87;;;;;;;5.64;61.88;100167.53;680561;29;1130;-84
2023/03/06 00:56:20;;;;;;;22.13;18.60;;;;;;;5.55;61.83;100151.66;683280;28;1092;-84
2023/03/06 00:56:41;;;;;;;23.65;18.95;;;;;;;5.54;61.47;100144.72;691084;28;1014;-84
2023/03/06 00:57:03;;;;;;;23.67;18.90;;;;;;;5.63;62.10;100163.19;688444;28;1249;-84
2023/03/06 00:57:23;;;;;;;23.63;19.15;;;;;;;5.59;61.70;100161.31;688497;28;1278;-84
2023/03/06 00:57:44;;;;;;;22.70;19.02;;;;;;;5.64;61.78;100164.09;688387;28;1186;-84
2023/03/06 00:58:04;;;;;;;24.03;19.30;;;;;;;5.56;61.69;100148.25;691298;28;1204;-84
2023/03/06 00:58:25;;;;;;;24.20;18.73;;;;;;;5.64;61.42;100159.78;688575;28;772;-84
2023/03/06 00:58:46;;;;;;;23.73;18.63;;;;;;;5.57;62.12;100147.41;691151;28;1011;-84
2023/03/06 00:59:06;;;;;;;23.20;18.50;;;;;;;5.57;61.75;100144.81;685702;28;1512;-84
2023/03/06 00:59:27;;;;;;;23.45;19.00;;;;;;;5.59;61.88;100145.78;685986;28;1139;-84
2023/03/06 00:59:47;;;;;;;24.83;19.07;;;;;;;5.57;61.81;100147.41;685832;28;1146;-84
2023/03/06 01:00:11;;;;;;;25.92;19.60;;;;;;;5.66;61.97;100162.44;685501;28;1146;-84
2023/03/06 01:00:31;;;;;;;24.98;19.20;;;;;;;5.63;61.87;100158.00;688633;28;1107;-84
2023/03/06 01:00:52;;;;;;;23.50;18.87;;;;;;;5.60;61.99;100147.53;685784;28;1182;-84
2023/03/06 01:01:13;;;;;;;21.40;17.88;;;;;;;5.57;62.04;100142.22;686028;28;1008;-84
2023/03/06 01:01:33;;;;;;;21.92;18.17;;;;;;;5.58;62.00;100138.84;688477;28;1156;-84
2023/03/06 01:01:54;;;;;;;21.33;17.80;;;;;;;5.65;61.70;100153.75;688438;28;1150;-84
2023/03/06 01:02:15;;;;;;;22.17;18.50;;;;;;;5.62;61.96;100153.66;683254;28;1215;-85
2023/03/06 01:02:35;;;;;;;22.05;18.60;;;;;;;5.58;62.00;100141.44;688550;28;1197;-84
2023/03/06 01:02:56;;;;;;;22.85;18.73;;;;;;;5.56;61.80;100143.06;685860;28;1119;-84
2023/03/06 01:03:16;;;;;;;22.93;18.47;;;;;;;5.54;61.96;100140.44;685933;28;841;-84
2023/03/06 01:03:37;;;;;;;23.90;18.60;;;;;;;5.53;61.90;100140.38;688549;28;1243;-84
2023/03/06 01:03:58;;;;;;;22.90;18.10;;;;;;;5.60;61.99;100147.53;691282;28;1233;-84
2023/03/06 01:04:18;;;;;;;22.93;17.70;;;;;;;5.60;62.13;100152.72;691294;28;1130;-84
2023/03/06 01:04:39;;;;;;;22.00;17.55;;;;;;;5.57;61.83;100142.22;683215;29;1096;-84
2023/03/06 01:05:00;;;;;;;22.35;18.00;;;;;;;5.62;62.11;100156.25;685853;28;1144;-84
2023/03/06 01:05:20;;;;;;;22.60;18.20;;;;;;;5.59;61.86;100143.19;683167;29;1308;-84
2023/03/06 01:05:41;;;;;;;23.17;18.50;;;;;;;5.56;61.96;100135.31;685824;28;1092;-84
2023/03/06 01:06:02;;;;;;;23.02;18.70;;;;;;;5.65;62.32;100148.59;691134;28;1167;-84
2023/03/06 01:06:23;;;;;;;22.45;18.90;;;;;;;5.57;62.13;100143.13;688518;28;1181;-84
2023/03/06 01:06:43;;;;;;;22.35;18.77;;;;;;;5.60;62.16;100142.38;691154;28;1094;-84
2023/03/06 01:07:04;;;;;;;22.67;18.95;;;;;;;5.59;62.06;100136.31;691296;28;1116;-84
2023/03/06 01:07:26;;;;;;;23.77;19.17;;;;;;;5.60;62.09;100148.41;691201;28;1173;-84
2023/03/06 01:07:47;;;;;;;24.55;19.38;;;;;;;5.61;62.46;100144.13;688525;28;1294;-84
2023/03/06 01:08:07;;;;;;;23.60;18.67;;;;;;;5.56;62.41;100135.31;691102;28;1981;-84
2023/03/06 01:08:28;;;;;;;22.42;18.17;;;;;;;5.57;62.51;100137.06;688565;28;1027;-84
2023/03/06 01:08:50;;;;;;;21.58;17.85;;;;;;;5.57;62.44;100137.06;685870;28;1112;-84
2023/03/06 01:09:11;;;;;;;21.63;17.92;;;;;;;5.54;62.11;100137.84;688521;28;1144;-84
2023/03/06 01:09:31;;;;;;;22.02;18.55;;;;;;;5.59;62.35;100135.44;685865;28;885;-84
2023/03/06 01:09:52;;;;;;;22.03;18.43;;;;;;;5.61;62.00;100142.41;683230;28;1096;-84
2023/03/06 01:10:13;;;;;;;21.95;18.55;;;;;;;5.56;62.10;100133.59;683130;28;1323;-84
2023/03/06 01:10:39;;;;;;;20.77;17.73;;;;;;;5.57;62.33;100134.47;688476;28;1387;-84
2023/03/06 01:10:59;;;;;;;20.55;17.73;;;;;;;5.61;62.03;100139.81;688536;28;1287;-84
2023/03/06 01:11:20;;;;;;;21.37;17.87;;;;;;;5.56;62.27;100128.44;691160;28;1260;-84
2023/03/06 01:11:41;;;;;;;22.33;18.45;;;;;;;5.59;62.03;100132.84;685752;28;1016;-84
2023/03/06 01:12:01;;;;;;;22.60;18.60;;;;;;;5.63;62.08;100142.47;691206;28;1180;-84
2023/03/06 01:12:22;;;;;;;22.17;18.52;;;;;;;5.62;62.56;100135.53;688525;28;1184;-84
2023/03/06 01:12:44;;;;;;;21.98;18.35;;;;;;;5.66;61.93;100146.91;685638;28;1113;-84
2023/03/06 01:13:05;;;;;;;21.58;17.52;;;;;;;5.64;62.14;100138.19;688421;28;1000;-84
2023/03/06 01:13:26;;;;;;;21.98;17.42;;;;;;;5.62;62.06;100138.13;688601;28;975;-84
2023/03/06 01:13:47;;;;;;;22.27;17.67;;;;;;;5.60;62.06;100127.72;688411;28;1310;-84
2023/03/06 01:14:08;;;;;;;21.70;17.80;;;;;;;5.58;62.21;100123.31;688658;28;1112;-84
2023/03/06 01:14:30;;;;;;;20.52;17.75;;;;;;;5.60;62.16;100127.72;683150;28;1193;-84
2023/03/06 01:14:51;;;;;;;19.85;17.25;;;;;;;5.63;62.18;100134.72;683172;28;1118;-84
2023/03/06 01:15:12;;;;;;;20.00;16.77;;;;;;;5.57;62.17;100121.53;691206;28;1195;-84
2023/03/06 01:15:33;;;;;;;20.60;16.55;;;;;;;5.55;62.05;100121.50;691132;28;1565;-84
2023/03/06 01:15:53;;;;;;;20.10;15.90;;;;;;;5.59;62.37;100135.44;688378;28;1424;-85
2023/03/06 01:16:17;;;;;;;19.78;16.32;;;;;;;5.55;62.36;100128.38;683190;29;1105;-84
2023/03/06 01:16:38;;;;;;;19.77;16.65;;;;;;;5.55;62.03;100129.25;688536;28;1038;-84
2023/03/06 01:16:59;;;;;;;19.43;16.47;;;;;;;5.61;62.20;100139.81;691302;28;1279;-84
2023/03/06 01:17:19;;;;;;;19.90;16.90;;;;;;;5.53;61.92;100119.66;694042;28;1091;-84
2023/03/06 01:17:40;;;;;;;20.55;17.13;;;;;;;5.54;62.04;100121.44;685741;28;1299;-84
2023/03/06 01:18:01;;;;;;;22.02;17.27;;;;;;;5.54;62.14;100119.72;685928;28;890;-84
2023/03/06 01:18:22;;;;;;;21.35;16.45;;;;;;;5.53;61.98;100123.13;685764;28;1279;-84
2023/03/06 01:18:43;;;;;;;22.17;16.50;;;;;;;5.59;62.20;100131.13;685784;28;1176;-84
2023/03/06 01:19:04;;;;;;;21.05;16.73;;;;;;;5.60;61.87;100132.88;691139;28;1592;-84
2023/03/06 01:19:25;;;;;;;21.63;17.70;;;;;;;5.65;61.92;100135.66;688676;28;854;-84
2023/03/06 01:19:45;;;;;;;20.35;17.75;;;;;;;5.59;62.05;100130.25;688276;28;1104;-84
2023/03/06 01:20:09;;;;;;;21.75;18.17;;;;;;;5.55;62.09;100118.00;688440;28;1303;-84
2023/03/06 01:20:30;;;;;;;22.65;18.10;;;;;;;5.62;62.37;100135.53;688490;28;1068;-84
2023/03/06 01:20:51;;;;;;;22.73;17.80;;;;;;;5.58;62.21;100125.91;680538;29;1077;-84
2023/03/06 01:21:12;;;;;;;22.88;17.10;;;;;;;5.53;62.20;100114.50;680636;29;990;-84
2023/03/06 01:21:33;;;;;;;21.40;16.33;;;;;;;5.55;62.07;100120.59;688544;28;1333;-84
2023/03/06 01:21:55;;;;;;;20.55;16.15;;;;;;;5.60;62.03;100142.38;691060;28;1257;-84
2023/03/06 01:22:15;;;;;;;19.42;16.13;;;;;;;5.51;62.19;100117.00;685827;28;1448;-84
2023/03/06 01:22:36;;;;;;;21.33;16.57;;;;;;;5.55;61.78;100125.78;685884;28;1083;-84
2023/03/06 01:22:57;;;;;;;21.05;16.73;;;;;;;5.50;62.01;100115.25;688448;28;1138;-84
2023/03/06 01:23:17;;;;;;;28.20;17.00;;;;;;;5.51;62.15;100127.38;691169;28;1060;-84
2023/03/06 01:23:38;;;;;;;26.70;16.85;;;;;;;5.51;62.05;100126.50;693821;28;1063;-84
2023/03/06 01:23:59;;;;;;;28.20;16.98;;;;;;;5.59;61.95;100131.13;691205;28;954;-84
2023/03/06 01:24:19;;;;;;;20.30;16.60;;;;;;;5.58;61.92;100128.50;688503;28;1147;-84
2023/03/06 01:24:40;;;;;;;20.27;16.50;;;;;;;5.56;62.14;100130.13;693782;28;1054;-84
2023/03/06 01:25:01;;;;;;;17.80;15.60;;;;;;;5.53;62.06;100122.25;691277;28;910;-84
2023/03/06 01:25:24;;;;;;;17.80;14.97;;;;;;;5.57;61.95;100140.53;696633;28;1184;-84
2023/03/06 01:25:45;;;;;;;17.80;14.98;;;;;;;5.51;62.13;100121.31;688250;28;1376;-84
2023/03/06 01:26:06;;;;;;;18.80;15.03;;;;;;;5.48;62.03;100114.31;688613;28;1201;-84
2023/03/06 01:26:27;;;;;;;18.92;15.43;;;;;;;5.59;61.90;100133.72;688449;28;1386;-84
2023/03/06 01:26:47;;;;;;;18.33;15.33;;;;;;;5.50;62.22;100116.94;688271;28;1075;-84
2023/03/06 01:27:08;;;;;;;17.30;15.30;;;;;;;5.48;62.32;100115.19;688509;28;1082;-84
2023/03/06 01:27:29;;;;;;;17.38;14.95;;;;;;;5.54;62.00;100126.59;683104;29;1077;-84
2023/03/06 01:27:50;;;;;;;17.90;14.97;;;;;;;5.48;62.25;100116.91;691125;28;1280;-84
2023/03/06 01:28:10;;;;;;;18.90;14.90;;;;;;;5.49;61.98;100121.25;691254;28;1891;-84
2023/03/06 01:28:32;;;;;;;18.90;14.53;;;;;;;5.48;61.64;100109.13;690994;28;1122;-84
2023/03/06 01:28:53;;;;;;;16.95;13.80;;;;;;;5.48;61.86;100120.34;687956;28;1326;-84
2023/03/06 01:29:15;;;;;;;18.52;13.75;;;;;;;5.56;61.91;100135.31;691168;28;1094;-84
2023/03/06 01:29:35;;;;;;;18.38;13.77;;;;;;;5.58;61.88;100125.91;689292;28;1194;-84
2023/03/06 01:29:56;;;;;;;18.65;14.25;;;;;;;5.47;61.77;100116.00;688475;28;1330;-85
2023/03/06 01:30:17;;;;;;;16.37;13.90;;;;;;;5.50;62.16;100123.00;693922;28;1240;-84
2023/03/06 01:30:37;;;;;;;15.80;14.10;;;;;;;5.52;61.75;100117.91;691182;28;1370;-84
2023/03/06 01:31:00;;;;;;;15.52;13.80;;;;;;;5.57;61.72;100122.44;688650;28;1071;-84
2023/03/06 01:31:20;;;;;;;16.45;13.93;;;;;;;5.44;61.99;100113.31;685864;28;1079;-85
2023/03/06 01:31:41;;;;;;;17.63;14.18;;;;;;;5.55;62.05;100129.25;683082;29;1144;-84
2023/03/06 01:32:02;;;;;;;18.05;13.98;;;;;;;5.55;61.66;100125.78;688299;28;1102;-84
2023/03/06 01:32:22;;;;;;;17.37;14.13;;;;;;;5.54;61.57;100114.56;691160;28;1121;-84
2023/03/06 01:32:43;;;;;;;16.57;13.67;;;;;;;5.45;61.30;100115.06;688332;28;1498;-84
2023/03/06 01:33:04;;;;;;;16.60;13.88;;;;;;;5.46;61.76;100115.97;683136;28;1109;-84
2023/03/06 01:33:24;;;;;;;16.88;13.60;;;;;;;5.54;61.63;100121.44;683245;28;1445;-84
2023/03/06 01:33:45;;;;;;;16.17;13.30;;;;;;;5.55;61.27;100123.19;683104;29;1135;-84
2023/03/06 01:34:07;;;;;;;16.25;13.60;;;;;;;5.58;61.34;100125.91;688340;28;1255;-84
2023/03/06 01:34:27;;;;;;;16.73;14.00;;;;;;;5.54;61.16;100116.25;685805;28;1199;-84
2023/03/06 01:34:48;;;;;;;17.85;13.88;;;;;;;5.48;61.32;100106.56;685800;28;1104;-84
2023/03/06 01:35:10;;;;;;;16.85;13.38;;;;;;;5.61;61.38;100126.00;688463;28;1311;-84
2023/03/06 01:35:31;;;;;;;15.90;13.02;;;;;;;5.50;61.38;100109.19;688475;28;1300;-84
2023/03/06 01:35:51;;;;;;;14.43;12.90;;;;;;;5.54;61.31;100124.00;688358;28;997;-84
2023/03/06 01:36:12;;;;;;;15.90;12.98;;;;;;;5.48;61.20;100112.59;688460;28;1123;-84
2023/03/06 01:36:32;;;;;;;15.80;12.55;;;;;;;5.55;61.36;100123.19;685680;28;997;-84
2023/03/06 01:36:54;;;;;;;16.10;12.77;;;;;;;5.51;61.26;100118.72;691006;28;1152;-85
2023/03/06 01:37:15;;;;;;;15.20;12.50;;;;;;;5.55;61.08;100125.78;688440;28;1230;-84
2023/03/06 01:37:36;;;;;;;15.07;12.50;;;;;;;5.54;61.12;100118.84;685866;28;1251;-84
2023/03/06 01:37:57;;;;;;;14.55;12.80;;;;;;;5.53;60.83;100115.34;693819;28;1250;-84
2023/03/06 01:38:18;;;;;;;15.05;12.95;;;;;;;5.51;61.30;100118.72;694039;28;1077;-84
2023/03/06 01:38:39;;;;;;;16.00;13.30;;;;;;;5.47;61.47;100109.97;693795;28;1310;-84
2023/03/06 01:38:59;;;;;;;15.70;12.80;;;;;;;5.47;61.23;100107.38;688391;28;1275;-84
2023/03/06 01:39:20;;;;;;;14.88;12.55;;;;;;;5.51;61.12;100106.66;691223;28;1126;-84
2023/03/06 01:39:41;;;;;;;15.63;13.35;;;;;;;5.57;61.08;100121.53;696685;28;1145;-84
2023/03/06 01:40:03;;;;;;;16.25;13.43;;;;;;;5.54;61.08;100116.25;688367;28;1272;-84